Time;durP1;ratioP1;P1;durP2;ratioP2;P2;SDS_P1;SDS_P2;PMS_P1;PMS_P2;Temp;Humidity;BMP_temperature;BMP_pressure;BME280_temperature;BME280_humidity;BME280_pressure;Samples;Min_cycle;Max_cycle;Signal;HPM_P1;HPM_P2
2021/09/19 00:00:39;;;;;;;6.73;1.87;;;;;;;15.33;100.00;97868.94;5093332;28;20303;-75
2021/09/19 00:03:06;;;;;;;2.20;1.47;;;;;;;15.32;100.00;97870.13;5092874;28;20669;-76
2021/09/19 00:05:33;;;;;;;1.60;1.40;;;;;;;15.33;100.00;97868.16;5086266;28;20229;-76
2021/09/19 00:07:59;;;;;;;1.60;1.50;;;;;;;15.27;100.00;97865.66;5072732;28;20295;-76
2021/09/19 00:10:26;;;;;;;3.17;1.73;;;;;;;15.29;100.00;97862.50;5072841;28;20212;-75
2021/09/19 00:12:52;;;;;;;2.30;1.80;;;;;;;15.12;100.00;97872.22;5072034;28;20296;-75
2021/09/19 00:15:20;;;;;;;2.43;1.47;;;;;;;15.15;100.00;97873.44;5071226;28;20253;-75
2021/09/19 00:17:47;;;;;;;2.37;1.70;;;;;;;15.19;100.00;97872.31;5072831;28;20300;-75
2021/09/19 00:20:15;;;;;;;2.00;1.60;;;;;;;15.20;100.00;97861.97;5072897;28;20236;-75
2021/09/19 00:22:42;;;;;;;3.47;1.80;;;;;;;15.11;100.00;97864.22;5072883;28;20284;-74
2021/09/19 00:25:11;;;;;;;2.27;1.80;;;;;;;15.18;100.00;97865.13;5071847;28;20688;-76
2021/09/19 00:27:37;;;;;;;2.13;1.70;;;;;;;15.16;100.00;97852.81;5072915;28;20292;-76
2021/09/19 00:30:07;;;;;;;3.37;1.90;;;;;;;15.20;100.00;97856.41;5072685;28;20217;-76
2021/09/19 00:32:35;;;;;;;1.70;1.33;;;;;;;15.18;100.00;97850.47;5075392;28;20259;-75
2021/09/19 00:35:02;;;;;;;4.87;1.77;;;;;;;15.18;100.00;97862.34;5092731;28;20312;-75
2021/09/19 00:37:29;;;;;;;2.60;1.70;;;;;;;15.22;100.00;97856.84;5092484;28;20287;-73
2021/09/19 00:39:56;;;;;;;4.00;1.67;;;;;;;15.18;100.00;97862.34;5092917;28;20583;-76
2021/09/19 00:42:23;;;;;;;3.90;1.73;;;;;;;15.05;100.00;97863.75;5092697;28;20287;-74
2021/09/19 00:45:01;;;;;;;1.70;1.57;;;;;;;15.02;100.00;97858.13;5091502;28;20307;-75
2021/09/19 00:47:27;;;;;;;2.10;1.70;;;;;;;15.02;100.00;97858.94;5092492;28;20239;-74
2021/09/19 00:49:54;;;;;;;3.23;1.80;;;;;;;14.96;100.00;97854.09;5092460;28;20320;-75
2021/09/19 00:52:21;;;;;;;2.73;1.67;;;;;;;14.94;100.00;97861.97;5091333;28;20295;-74
2021/09/19 00:54:49;;;;;;;2.80;1.90;;;;;;;14.98;100.00;97852.50;5091566;28;20311;-74
2021/09/19 00:57:17;;;;;;;2.20;1.80;;;;;;;14.96;100.00;97860.41;5090744;28;20727;-74
2021/09/19 01:34:38;;;;;;;1.90;1.50;;;;;;;14.36;100.00;97868.91;5108977;27;20822;-75
2021/09/19 01:37:07;;;;;;;5.53;2.10;;;;;;;14.45;100.00;97861.13;5108086;28;20299;-75
2021/09/19 01:39:34;;;;;;;3.57;1.97;;;;;;;14.39;100.00;97857.06;5108449;28;20235;-75
2021/09/19 01:42:00;;;;;;;3.13;2.07;;;;;;;14.42;100.00;97851.56;5091645;28;20233;-76
2021/09/19 01:44:27;;;;;;;3.33;1.83;;;;;;;14.39;100.00;97845.94;5108874;28;20208;-74
2021/09/19 01:46:53;;;;;;;3.13;2.10;;;;;;;14.33;100.00;97847.41;5109200;28;20203;-74
2021/09/19 01:49:20;;;;;;;2.47;1.63;;;;;;;14.37;100.00;97842.72;5109268;28;20235;-74
2021/09/19 01:51:46;;;;;;;4.03;2.00;;;;;;;14.33;100.00;97844.63;5120280;28;20231;-72
2021/09/19 01:54:13;;;;;;;2.23;1.50;;;;;;;14.39;100.00;97837.63;5133504;28;20219;-74
2021/09/19 01:56:39;;;;;;;2.27;1.60;;;;;;;14.38;100.00;97836.03;5118588;28;20266;-76
2021/09/19 01:59:06;;;;;;;2.77;1.97;;;;;;;14.30;100.00;97837.06;5109360;28;20290;-75
2021/09/19 02:01:32;;;;;;;1.77;1.67;;;;;;;14.33;100.00;97839.91;5109540;28;20303;-75
2021/09/19 02:03:59;;;;;;;3.47;1.57;;;;;;;14.36;100.00;97835.59;5107620;28;20699;-74
2021/09/19 02:06:26;;;;;;;1.70;1.60;;;;;;;14.40;100.00;97842.78;5094489;28;20221;-74
2021/09/19 02:08:53;;;;;;;2.27;1.53;;;;;;;14.33;100.00;97833.53;5089534;28;20295;-74
2021/09/19 02:11:20;;;;;;;3.37;1.97;;;;;;;14.30;100.00;97828.72;5104305;28;20332;-74
2021/09/19 02:13:48;;;;;;;3.50;1.73;;;;;;;14.32;100.00;97829.97;5088176;28;20231;-75
2021/09/19 02:16:16;;;;;;;3.47;1.60;;;;;;;14.38;100.00;97827.69;5088290;28;20228;-76
2021/09/19 02:18:43;;;;;;;2.97;1.97;;;;;;;14.31;100.00;97827.53;5088335;28;20299;-75
2021/09/19 02:21:10;;;;;;;5.50;1.77;;;;;;;14.33;100.00;97820.47;5089177;28;20240;-75
2021/09/19 02:23:37;;;;;;;2.67;1.67;;;;;;;14.34;100.00;97824.03;5088939;28;20576;-75
2021/09/19 02:26:04;;;;;;;2.90;1.77;;;;;;;14.41;100.00;97822.22;5108276;28;20280;-74
2021/09/19 02:28:31;;;;;;;2.37;1.60;;;;;;;14.44;100.00;97817.88;5108037;28;20213;-75
2021/09/19 02:30:57;;;;;;;3.60;1.67;;;;;;;14.37;100.00;97809.41;5089309;28;20823;-75
2021/09/19 02:33:24;;;;;;;2.07;1.70;;;;;;;14.35;100.00;97811.75;5096508;28;20234;-75
2021/09/19 02:35:50;;;;;;;2.57;1.63;;;;;;;14.34;100.00;97812.94;5108162;28;20705;-75
2021/09/19 02:38:17;;;;;;;2.63;1.77;;;;;;;14.34;100.00;97804.63;5108566;28;20665;-74
2021/09/19 02:40:44;;;;;;;2.20;1.50;;;;;;;14.37;100.00;97803.88;5108557;28;20214;-73
2021/09/19 02:43:10;;;;;;;2.20;1.50;;;;;;;14.28;100.00;97809.66;5107196;28;20214;-74
2021/09/19 02:45:37;;;;;;;1.73;1.50;;;;;;;14.27;100.00;97804.50;5096549;28;20228;-75
2021/09/19 02:48:04;;;;;;;3.30;1.70;;;;;;;14.24;100.00;97795.69;5095318;28;20208;-73
2021/09/19 02:50:30;;;;;;;1.93;1.50;;;;;;;14.13;100.00;97793.88;5094575;28;20717;-75
2021/09/19 02:52:57;;;;;;;2.50;1.53;;;;;;;14.09;100.00;97799.38;5093569;28;20289;-74
2021/09/19 02:55:23;;;;;;;3.00;1.70;;;;;;;14.01;100.00;97792.09;5094121;28;20681;-73
2021/09/19 02:57:50;;;;;;;2.00;1.63;;;;;;;13.96;100.00;97784.06;5111942;28;20268;-74
2021/09/19 03:00:20;;;;;;;2.80;2.20;;;;;;;13.87;100.00;97791.00;5119161;28;20189;-73
2021/09/19 03:02:48;;;;;;;2.00;1.70;;;;;;;13.95;100.00;97795.53;5106721;28;20565;-74
2021/09/19 03:05:15;;;;;;;2.37;1.80;;;;;;;13.96;100.00;97786.03;5091406;28;20224;-74
2021/09/19 03:07:43;;;;;;;2.80;2.10;;;;;;;13.95;100.00;97785.25;5074666;28;20319;-74
2021/09/19 03:10:11;;;;;;;3.33;1.57;;;;;;;13.96;100.00;97786.84;5074067;28;20240;-76
2021/09/19 03:12:37;;;;;;;2.43;2.00;;;;;;;13.94;100.00;97780.84;5072690;28;20706;-75
2021/09/19 03:15:05;;;;;;;2.80;2.00;;;;;;;13.94;100.00;97774.53;5073498;28;20333;-75
2021/09/19 03:17:31;;;;;;;2.83;1.67;;;;;;;13.91;100.00;97775.25;5074510;28;20296;-76
2021/09/19 03:19:58;;;;;;;3.60;1.80;;;;;;;13.91;100.00;97770.50;5072339;28;20551;-76
2021/09/19 03:22:25;;;;;;;3.70;1.93;;;;;;;13.93;100.00;97770.94;5074043;28;20211;-75
2021/09/19 03:24:51;;;;;;;3.10;1.90;;;;;;;13.88;100.00;97764.91;5072967;28;20222;-74
2021/09/19 03:27:18;;;;;;;2.63;2.10;;;;;;;-143.37;100.00;65745.06;5073543;28;20295;-74
2021/09/19 03:29:44;;;;;;;3.77;1.97;;;;;;;-143.37;100.00;65745.06;5073752;28;20292;-73
2021/09/19 03:32:11;;;;;;;2.27;1.67;;;;;;;-143.37;100.00;65745.06;5072386;28;20267;-75
2021/09/19 03:34:38;;;;;;;3.60;1.70;;;;;;;13.89;100.00;97761.75;5092636;28;20319;-74
2021/09/19 03:37:04;;;;;;;3.40;2.00;;;;;;;-143.37;100.00;97749.78;5093691;28;20204;-74
2021/09/19 03:39:31;;;;;;;2.80;1.77;;;;;;;13.84;100.00;97756.50;5093678;28;20630;-73
2021/09/19 03:41:58;;;;;;;4.60;1.70;;;;;;;-143.37;100.00;65745.06;5093443;28;20299;-75
2021/09/19 03:44:24;;;;;;;1.93;1.73;;;;;;;-143.37;100.00;65745.06;5093243;28;20291;-73
2021/09/19 03:46:51;;;;;;;3.93;1.90;;;;;;;-143.37;100.00;65745.06;5092093;28;20587;-74
2021/09/19 03:49:17;;;;;;;2.07;1.80;;;;;;;-143.37;100.00;65745.06;5093577;28;20232;-74
2021/09/19 03:51:44;;;;;;;2.87;1.87;;;;;;;-143.37;100.00;65745.06;5093425;28;20211;-75
2021/09/19 03:54:10;;;;;;;2.53;1.80;;;;;;;13.76;100.00;97754.75;5092880;28;20311;-73
2021/09/19 03:56:37;;;;;;;2.80;1.97;;;;;;;-143.37;100.00;65745.06;5090475;28;20230;-73
2021/09/19 03:59:03;;;;;;;3.13;1.93;;;;;;;-143.37;100.00;65745.06;5092186;28;20201;-74
2021/09/19 04:01:30;;;;;;;2.60;1.77;;;;;;;-143.37;100.00;65745.06;5092171;28;20302;-74
2021/09/19 04:03:57;;;;;;;1.90;1.60;;;;;;;-143.37;100.00;65745.06;5092938;28;20617;-74
2021/09/19 04:06:23;;;;;;;4.73;2.00;;;;;;;-143.37;100.00;65745.06;5079374;28;20709;-73
2021/09/19 04:08:50;;;;;;;2.67;1.77;;;;;;;-143.37;100.00;65745.06;5072866;28;20300;-74
2021/09/19 04:11:16;;;;;;;2.37;2.00;;;;;;;-143.37;100.00;65745.06;5072771;28;20296;-75
2021/09/19 04:13:43;;;;;;;3.60;2.13;;;;;;;-143.37;100.00;65745.06;5072461;28;20315;-73
2021/09/19 04:16:09;;;;;;;4.60;1.93;;;;;;;-143.37;100.00;65745.06;5072032;28;20316;-74
2021/09/19 04:18:36;;;;;;;3.90;1.90;;;;;;;-143.37;100.00;65745.06;5072562;28;20557;-74
2021/09/19 04:21:03;;;;;;;2.97;1.97;;;;;;;-143.37;100.00;65745.06;5071350;28;20209;-74
2021/09/19 04:23:29;;;;;;;2.73;2.07;;;;;;;-143.37;100.00;65745.06;5087568;28;20232;-75
2021/09/19 04:25:56;;;;;;;2.10;1.90;;;;;;;-143.37;100.00;65745.06;5070887;28;20655;-73
2021/09/19 04:28:22;;;;;;;3.10;2.40;;;;;;;-143.37;100.00;65745.06;5088065;28;20284;-73
2021/09/19 04:30:49;;;;;;;6.23;2.10;;;;;;;-143.37;100.00;65745.06;5071149;28;20650;-73
2021/09/19 04:33:15;;;;;;;3.40;2.20;;;;;;;-143.37;100.00;65745.06;5080086;28;20304;-74
2021/09/19 04:35:41;;;;;;;3.30;1.50;;;;;;;-143.37;100.00;65745.06;5092180;28;20270;-74
2021/09/19 04:38:09;;;;;;;2.23;2.00;;;;;;;-143.37;100.00;65745.06;5091181;28;20262;-73
2021/09/19 04:40:35;;;;;;;3.60;2.10;;;;;;;-143.37;100.00;65745.06;5092927;28;20215;-74
2021/09/19 04:43:02;;;;;;;3.73;1.93;;;;;;;-143.37;100.00;65745.06;5093508;28;20204;-75
2021/09/19 04:45:29;;;;;;;2.27;1.70;;;;;;;-143.37;100.00;65745.06;5093662;28;20244;-74
2021/09/19 04:47:55;;;;;;;2.70;2.10;;;;;;;-143.37;100.00;65745.06;5093706;28;20825;-75
2021/09/19 04:50:22;;;;;;;4.97;2.23;;;;;;;-143.37;100.00;65745.06;5094102;28;20300;-75
2021/09/19 04:52:48;;;;;;;2.63;2.00;;;;;;;-143.37;100.00;65745.06;5093828;28;20204;-75
2021/09/19 04:55:15;;;;;;;2.50;2.20;;;;;;;-143.37;100.00;65745.06;5091631;28;20693;-74
2021/09/19 04:57:41;;;;;;;2.73;1.80;;;;;;;-143.37;100.00;65745.06;5092401;28;20205;-74
2021/09/19 05:00:08;;;;;;;3.93;2.30;;;;;;;-143.37;100.00;65745.06;5091208;28;20236;-74
2021/09/19 05:02:34;;;;;;;4.13;2.60;;;;;;;-143.37;100.00;65745.06;5092392;28;20228;-75
2021/09/19 05:05:01;;;;;;;2.40;1.87;;;;;;;-143.37;100.00;65745.06;5089689;28;20221;-73
2021/09/19 05:07:28;;;;;;;3.37;1.90;;;;;;;-143.37;100.00;65745.06;5071885;28;20621;-75
2021/09/19 05:09:54;;;;;;;2.93;1.93;;;;;;;-143.37;100.00;65745.06;5069675;28;20209;-73
2021/09/19 05:12:21;;;;;;;2.30;2.00;;;;;;;-143.37;100.00;65745.06;5071958;28;20288;-74
2021/09/19 05:14:49;;;;;;;2.53;2.10;;;;;;;-143.37;100.00;65745.06;5071597;28;20316;-75
2021/09/19 05:17:16;;;;;;;2.53;1.83;;;;;;;-143.37;100.00;65745.06;5072380;28;20205;-75
2021/09/19 05:19:43;;;;;;;2.37;1.87;;;;;;;-143.37;100.00;65745.06;5072362;28;20272;-74
2021/09/19 05:22:11;;;;;;;2.00;1.80;;;;;;;-143.37;100.00;65745.06;5071852;28;20205;-75
2021/09/19 05:24:37;;;;;;;3.80;2.13;;;;;;;-143.37;100.00;65745.06;5070135;28;20205;-74
2021/09/19 05:27:04;;;;;;;2.33;2.00;;;;;;;-143.37;100.00;65745.06;5071277;28;20661;-74
2021/09/19 05:29:31;;;;;;;2.33;1.93;;;;;;;-143.37;100.00;65745.06;5071639;28;20304;-74
2021/09/19 05:31:58;;;;;;;2.60;2.20;;;;;;;-143.37;100.00;65745.06;5071712;28;20209;-74
2021/09/19 05:34:25;;;;;;;2.27;1.73;;;;;;;-143.37;100.00;65745.06;5087511;28;20234;-74
2021/09/19 05:36:52;;;;;;;2.43;2.00;;;;;;;-143.37;100.00;65745.06;5091400;28;20581;-74
2021/09/19 05:39:18;;;;;;;2.70;1.97;;;;;;;-143.37;100.00;65745.06;5090623;28;20209;-73
2021/09/19 05:41:45;;;;;;;2.43;1.87;;;;;;;-143.37;100.00;65745.06;5091840;28;20291;-73
2021/09/19 05:44:11;;;;;;;2.20;1.60;;;;;;;-143.37;100.00;65745.06;5089943;28;20651;-73
2021/09/19 05:46:38;;;;;;;2.23;1.83;;;;;;;-143.37;100.00;65745.06;5091157;28;20234;-74
2021/09/19 05:49:05;;;;;;;3.93;2.53;;;;;;;-143.37;100.00;65745.06;5091660;28;20200;-74
2021/09/19 05:51:31;;;;;;;2.60;1.80;;;;;;;-143.37;100.00;65745.06;5091309;28;20223;-75
2021/09/19 05:53:58;;;;;;;9.03;2.17;;;;;;;-143.37;100.00;65745.06;5091034;28;20318;-75
2021/09/19 05:56:24;;;;;;;2.17;1.90;;;;;;;-143.37;100.00;65745.06;5090608;28;20725;-74
2021/09/19 05:58:51;;;;;;;2.57;2.00;;;;;;;-143.37;100.00;65745.06;5091484;28;20303;-75
2021/09/19 06:01:17;;;;;;;3.53;1.80;;;;;;;-143.37;100.00;65745.06;5090374;28;20262;-73
2021/09/19 06:03:44;;;;;;;2.33;1.77;;;;;;;-143.37;100.00;65745.06;5091015;28;20212;-74
2021/09/19 06:06:11;;;;;;;2.07;1.70;;;;;;;-143.37;100.00;65745.06;5079989;28;20232;-76
2021/09/19 06:08:37;;;;;;;1.87;1.60;;;;;;;-143.37;100.00;65745.06;5087917;28;20288;-74
2021/09/19 06:11:04;;;;;;;2.20;1.80;;;;;;;-143.37;100.00;65745.06;5071976;28;20243;-75
2021/09/19 06:13:31;;;;;;;2.73;2.00;;;;;;;-143.37;100.00;65745.06;5071164;28;20213;-76
2021/09/19 06:15:57;;;;;;;2.50;1.50;;;;;;;-143.37;100.00;65745.06;5071758;28;20256;-75
2021/09/19 06:18:28;;;;;;;2.13;1.80;;;;;;;-143.37;100.00;65745.06;5083913;28;20237;-75
2021/09/19 06:20:59;;;;;;;2.93;1.80;;;;;;;-143.37;100.00;65745.06;5092786;28;20223;-74
2021/09/19 06:23:26;;;;;;;2.50;1.80;;;;;;;-143.37;100.00;65745.06;5079427;28;20232;-75
2021/09/19 06:25:52;;;;;;;2.00;1.70;;;;;;;-143.37;100.00;65745.06;5074551;28;20320;-75
2021/09/19 06:28:19;;;;;;;2.40;1.97;;;;;;;-143.37;100.00;65745.06;5074390;28;20202;-76
2021/09/19 06:30:46;;;;;;;2.37;1.87;;;;;;;-143.37;100.00;65745.06;5074382;28;20674;-76
2021/09/19 06:33:12;;;;;;;2.73;1.97;;;;;;;-143.37;100.00;65745.06;5082210;28;20648;-75
2021/09/19 06:35:40;;;;;;;2.50;1.93;;;;;;;-143.37;100.00;65745.06;5094692;28;20228;-75
2021/09/19 06:38:08;;;;;;;3.73;2.13;;;;;;;-143.37;100.00;65745.06;5093976;28;20295;-75
2021/09/19 06:40:35;;;;;;;2.83;1.70;;;;;;;-143.37;100.00;65745.06;5095586;28;20229;-75
2021/09/19 06:43:02;;;;;;;3.23;1.90;;;;;;;-143.37;100.00;65745.06;5094941;28;20299;-75
2021/09/19 06:45:29;;;;;;;2.70;1.87;;;;;;;-143.37;100.00;65745.06;5094806;28;20315;-75
2021/09/19 06:47:55;;;;;;;2.47;1.77;;;;;;;-143.37;100.00;65745.06;5096105;28;20208;-74
2021/09/19 06:50:22;;;;;;;3.10;2.20;;;;;;;-143.37;100.00;65745.06;5104143;28;20247;-75
2021/09/19 06:52:48;;;;;;;2.80;2.00;;;;;;;-143.37;100.00;65745.06;5113244;28;20212;-75
2021/09/19 06:55:15;;;;;;;3.47;2.33;;;;;;;-143.37;100.00;65745.06;5102158;28;20260;-76
2021/09/19 06:57:41;;;;;;;3.73;1.90;;;;;;;-143.37;100.00;65745.06;5091277;28;20737;-74
2021/09/19 07:00:09;;;;;;;2.17;1.80;;;;;;;-143.37;100.00;65745.06;5074981;28;20317;-75
2021/09/19 07:02:36;;;;;;;2.80;2.20;;;;;;;-143.37;100.00;65745.06;5090027;28;20240;-76
2021/09/19 07:05:05;;;;;;;2.70;2.00;;;;;;;-143.37;100.00;65745.06;5072038;28;20628;-75
2021/09/19 07:07:31;;;;;;;3.83;2.60;;;;;;;-143.37;100.00;65745.06;5074130;28;20296;-77
2021/09/19 07:09:59;;;;;;;2.70;1.90;;;;;;;-143.37;100.00;65745.06;5074117;28;20209;-73
2021/09/19 07:12:26;;;;;;;2.13;1.57;;;;;;;-143.37;100.00;65745.06;5073694;28;20292;-74
2021/09/19 07:14:52;;;;;;;3.73;2.10;;;;;;;-143.37;100.00;65745.06;5073376;28;20315;-74
2021/09/19 07:17:18;;;;;;;2.80;1.83;;;;;;;-143.37;100.00;65745.06;5074417;28;20330;-74
2021/09/19 07:19:45;;;;;;;4.17;2.33;;;;;;;-143.37;100.00;65745.06;5074431;28;20298;-75
2021/09/19 07:22:11;;;;;;;2.60;2.10;;;;;;;-143.37;100.00;65745.06;5081165;28;20216;-75
2021/09/19 07:24:38;;;;;;;2.53;2.13;;;;;;;-143.37;100.00;65745.06;5087361;28;20232;-75
2021/09/19 07:27:06;;;;;;;2.03;1.83;;;;;;;-143.37;100.00;65745.06;5084399;28;20208;-75
2021/09/19 07:29:34;;;;;;;6.27;2.43;;;;;;;-143.37;100.00;65745.06;5062738;28;20273;-75
2021/09/19 07:32:01;;;;;;;4.17;2.20;;;;;;;-143.37;100.00;65745.06;5055638;28;20784;-76
2021/09/19 07:34:29;;;;;;;3.10;2.30;;;;;;;-143.37;100.00;65745.06;5090282;28;20819;-76
2021/09/19 07:36:56;;;;;;;2.53;2.27;;;;;;;-143.37;100.00;65745.06;5095967;28;20649;-74
2021/09/19 07:39:22;;;;;;;3.13;2.23;;;;;;;-143.37;100.00;65745.06;5093770;28;20804;-75
2021/09/19 07:41:53;;;;;;;3.33;2.10;;;;;;;-143.37;100.00;65745.06;5093701;28;20295;-77
2021/09/19 07:44:21;;;;;;;2.63;1.93;;;;;;;-143.37;100.00;65745.06;5093214;28;20287;-74
2021/09/19 07:46:51;;;;;;;2.67;2.08;;;;;;;-143.37;100.00;65745.06;5092926;28;20204;-75
2021/09/19 07:49:18;;;;;;;2.45;1.70;;;;;;;18.07;100.00;97745.16;5093373;28;20287;-75
2021/09/19 07:51:45;;;;;;;2.97;2.33;;;;;;;18.18;100.00;97752.38;5093203;28;20291;-75
2021/09/19 07:54:27;;;;;;;2.88;2.10;;;;;;;-143.37;100.00;65745.06;5092877;28;20238;-75
2021/09/19 07:57:08;;;;;;;4.00;1.92;;;;;;;-143.37;100.00;65745.06;5092734;28;20228;-75
2021/09/19 07:59:50;;;;;;;2.97;1.88;;;;;;;-143.37;100.00;65745.06;5092748;28;20244;-76
2021/09/19 08:02:32;;;;;;;2.58;1.70;;;;;;;-143.37;100.00;65745.06;5092745;28;20756;-75
2021/09/19 08:05:15;;;;;;;2.53;2.00;;;;;;;-143.37;100.00;65745.06;5090859;28;20270;-74
2021/09/19 08:07:57;;;;;;;2.20;1.65;;;;;;;-143.37;100.00;65745.06;5071436;28;20204;-75
2021/09/19 08:10:38;;;;;;;1.85;1.65;;;;;;;-143.37;100.00;65745.06;5071841;28;20232;-74
2021/09/19 08:13:19;;;;;;;2.35;1.90;;;;;;;-143.37;100.00;65745.06;5072312;28;20287;-76
2021/09/19 08:16:00;;;;;;;2.00;1.60;;;;;;;-143.37;100.00;65745.06;5070185;28;20709;-75
2021/09/19 08:18:42;;;;;;;1.30;1.20;;;;;;;-143.37;100.00;65745.06;5072272;28;20239;-77
2021/09/19 08:21:23;;;;;;;1.60;1.33;;;;;;;-143.37;100.00;65745.06;5072393;28;20204;-77
2021/09/19 08:24:05;;;;;;;1.20;1.10;;;;;;;-143.37;100.00;65745.06;5071756;28;20241;-76
2021/09/19 08:26:46;;;;;;;1.75;1.35;;;;;;;-143.37;100.00;65745.06;5071774;28;20263;-75
2021/09/19 08:29:28;;;;;;;1.40;1.30;;;;;;;-143.37;100.00;65745.06;5070371;28;20209;-75
2021/09/19 08:32:09;;;;;;;1.35;1.20;;;;;;;-143.37;100.00;65745.06;5071739;28;20258;-75
2021/09/19 08:34:50;;;;;;;1.50;1.38;;;;;;;-143.37;100.00;65745.06;5090931;28;20299;-75
2021/09/19 08:37:32;;;;;;;1.15;1.02;;;;;;;-143.37;100.00;65745.06;5092055;28;20287;-75
2021/09/19 08:40:14;;;;;;;1.23;1.10;;;;;;;-143.37;100.00;65745.06;5091709;28;21085;-76
2021/09/19 08:42:56;;;;;;;1.30;1.08;;;;;;;-143.37;100.00;65745.06;5090896;28;20235;-77
2021/09/19 08:45:38;;;;;;;2.30;1.40;;;;;;;-143.37;100.00;65745.06;5090480;28;20728;-76
2021/09/19 08:48:20;;;;;;;1.25;1.15;;;;;;;-143.37;100.00;65745.06;5091702;28;20208;-75
2021/09/19 08:51:07;;;;;;;1.35;1.25;;;;;;;-143.37;100.00;65745.06;5092118;28;20308;-75
2021/09/19 08:53:48;;;;;;;2.42;1.75;;;;;;;-143.37;100.00;65745.06;5092114;28;20232;-75
2021/09/19 08:56:40;;;;;;;1.65;1.30;;;;;;;-143.37;100.00;65745.06;5097279;28;20216;-74
2021/09/19 08:59:21;;;;;;;1.70;1.38;;;;;;;-143.37;100.00;65745.06;5110520;28;20204;-74
2021/09/19 09:02:16;;;;;;;1.40;1.25;;;;;;;-143.37;100.00;65745.06;5102574;28;20722;-75
2021/09/19 09:05:00;;;;;;;4.53;1.48;;;;;;;-143.37;100.00;65745.06;5091198;28;20232;-75
2021/09/19 09:07:44;;;;;;;1.25;1.15;;;;;;;-143.37;100.00;65745.06;5051508;28;20243;-74
2021/09/19 09:10:34;;;;;;;3.65;1.50;;;;;;;-143.37;100.00;65745.06;5050909;28;20252;-74
2021/09/19 09:13:25;;;;;;;1.58;1.20;;;;;;;-143.37;100.00;65745.06;5050957;28;20213;-73
2021/09/19 09:16:10;;;;;;;1.23;1.10;;;;;;;-143.37;100.00;65745.06;5050200;28;20221;-74
2021/09/19 09:19:09;;;;;;;1.42;1.33;;;;;;;-143.37;100.00;65745.06;5049594;28;20271;-76
2021/09/19 09:22:01;;;;;;;1.05;0.98;;;;;;;-143.37;100.00;65745.06;5050430;28;20244;-75
2021/09/19 09:24:43;;;;;;;1.00;1.00;;;;;;;-143.37;100.00;65745.06;5048578;28;20300;-75
2021/09/19 09:27:42;;;;;;;1.10;1.00;;;;;;;-143.37;100.00;65745.06;5049331;28;20291;-76
2021/09/19 09:30:25;;;;;;;0.80;0.80;;;;;;;-143.37;100.00;65745.06;5072766;28;20237;-75
2021/09/19 09:33:16;;;;;;;1.85;1.05;;;;;;;-143.37;100.00;65745.06;5080367;28;20212;-75
2021/09/19 09:36:04;;;;;;;1.17;1.10;;;;;;;-143.37;100.00;65745.06;5095995;28;20319;-74
2021/09/19 09:38:45;;;;;;;2.10;1.10;;;;;;;-143.37;100.00;65745.06;5091879;28;20209;-74
2021/09/19 09:41:42;;;;;;;2.38;1.63;;;;;;;-143.37;100.00;65745.06;5090912;28;20218;-74
2021/09/19 09:44:47;;;;;;;1.42;1.15;;;;;;;-143.37;100.00;65745.06;5090478;28;20211;-73
2021/09/19 09:47:35;;;;;;;1.25;1.10;;;;;;;-143.37;100.00;65745.06;5088972;28;20200;-74
2021/09/19 09:50:23;;;;;;;1.30;1.20;;;;;;;-143.37;100.00;65745.06;5088754;28;20295;-74
2021/09/19 09:53:08;;;;;;;2.10;1.40;;;;;;;-143.37;100.00;65745.06;5089788;28;20204;-74
2021/09/19 09:55:50;;;;;;;2.00;1.30;;;;;;;-143.37;100.00;65745.06;5092085;28;20307;-74
2021/09/19 09:58:32;;;;;;;1.13;1.02;;;;;;;-143.37;100.00;65745.06;5093802;28;20236;-75
2021/09/19 10:01:13;;;;;;;1.33;1.08;;;;;;;-143.37;100.00;65745.06;5093844;28;20211;-74
2021/09/19 10:03:56;;;;;;;1.88;1.70;;;;;;;-143.37;100.00;65745.06;5093702;28;20213;-74
2021/09/19 10:06:38;;;;;;;1.60;1.30;;;;;;;-143.37;100.00;65745.06;5078827;28;20678;-75
2021/09/19 10:09:19;;;;;;;1.50;1.40;;;;;;;-143.37;100.00;65745.06;5073546;28;20211;-74
2021/09/19 10:12:02;;;;;;;1.50;1.40;;;;;;;-143.37;100.00;65745.06;5073521;28;20209;-73
2021/09/19 10:14:44;;;;;;;2.17;1.70;;;;;;;-143.37;100.00;65745.06;5072837;28;20209;-74
2021/09/19 10:17:28;;;;;;;5.82;5.22;;;;;;;-143.37;100.00;65745.06;5073121;28;20205;-74
2021/09/19 10:20:30;;;;;;;4.88;3.80;;;;;;;-143.37;100.00;65745.06;5088480;28;20309;-74
2021/09/19 10:23:22;;;;;;;4.82;4.05;;;;;;;-143.37;100.00;65745.06;5072987;28;20418;-74
2021/09/19 10:26:08;;;;;;;2.47;2.03;;;;;;;-143.37;100.00;65745.06;5072765;28;20264;-74
2021/09/19 10:28:52;;;;;;;4.05;2.33;;;;;;;-143.37;100.00;65745.06;5055807;28;20233;-73
2021/09/19 10:31:42;;;;;;;2.63;2.20;;;;;;;-143.37;100.00;65745.06;5073126;28;20212;-73
2021/09/19 10:34:28;;;;;;;3.05;2.70;;;;;;;-143.37;100.00;65745.06;5088252;28;20226;-75
2021/09/19 10:37:10;;;;;;;2.05;1.85;;;;;;;-143.37;100.00;65745.06;5091828;28;20228;-74
2021/09/19 10:40:04;;;;;;;1.75;1.60;;;;;;;-143.37;100.00;65745.06;5093767;28;20246;-73
2021/09/19 10:42:48;;;;;;;3.78;1.40;;;;;;;-143.37;100.00;65745.06;5093383;28;20291;-74
2021/09/19 10:45:37;;;;;;;2.85;2.00;;;;;;;-143.37;100.00;65745.06;5091578;28;20688;-74
2021/09/19 10:48:32;;;;;;;2.47;1.58;;;;;;;-143.37;100.00;65745.06;5092843;28;20300;-74
2021/09/19 10:51:18;;;;;;;2.20;1.67;;;;;;;-143.37;100.00;65745.06;5093341;28;20655;-76
2021/09/19 10:54:00;;;;;;;2.88;1.65;;;;;;;-143.37;100.00;65745.06;5091064;28;20204;-76
2021/09/19 10:56:57;;;;;;;1.10;1.00;;;;;;;-143.37;100.00;65745.06;5092413;28;20629;-74
2021/09/19 11:00:01;;;;;;;1.88;1.40;;;;;;;-143.37;100.00;65745.06;5093090;28;20280;-75
2021/09/19 11:03:02;;;;;;;1.67;1.45;;;;;;;-143.37;100.00;65745.06;5093092;28;20204;-74
2021/09/19 11:05:44;;;;;;;2.33;2.13;;;;;;;-143.37;100.00;65745.06;5085773;28;20236;-76
2021/09/19 11:08:38;;;;;;;8.68;7.60;;;;;;;-143.37;100.00;65745.06;5073044;28;20261;-75
2021/09/19 11:11:22;;;;;;;57.10;36.95;;;;;;;-143.37;100.00;65745.06;5072628;28;20256;-74
2021/09/19 11:14:10;;;;;;;26.80;18.17;;;;;;;-143.37;100.00;65745.06;5072117;28;20590;-75
2021/09/19 11:16:53;;;;;;;6.80;4.97;;;;;;;-143.37;100.00;65745.06;5054151;28;20225;-74
2021/09/19 11:19:36;;;;;;;9.77;7.00;;;;;;;-143.37;100.00;65745.06;5070920;28;20682;-75
2021/09/19 11:22:36;;;;;;;6.75;4.68;;;;;;;-143.37;100.00;65745.06;5072516;28;20251;-76
2021/09/19 11:25:19;;;;;;;3.35;2.30;;;;;;;-143.37;100.00;65745.06;5071530;28;20316;-75
2021/09/19 11:28:01;;;;;;;1.67;1.33;;;;;;;-143.37;100.00;65745.06;5072171;28;20295;-74
2021/09/19 11:30:42;;;;;;;1.42;1.10;;;;;;;-143.37;100.00;65745.06;5052435;28;20214;-75
2021/09/19 11:33:24;;;;;;;1.60;1.25;;;;;;;-143.37;100.00;65745.06;5066312;28;20300;-77
2021/09/19 11:36:07;;;;;;;2.22;1.23;;;;;;;-143.37;100.00;65745.06;5090487;28;20735;-77
2021/09/19 11:38:59;;;;;;;0.90;0.80;;;;;;;-143.37;100.00;65745.06;5090649;28;20208;-75
2021/09/19 11:41:42;;;;;;;1.60;1.38;;;;;;;-143.37;100.00;65745.06;5091323;28;20301;-74
2021/09/19 11:44:24;;;;;;;1.00;0.88;;;;;;;-143.37;100.00;65745.06;5074070;28;20204;-75
2021/09/19 11:47:06;;;;;;;1.55;1.02;;;;;;;-143.37;100.00;65745.06;5091638;28;20216;-75
2021/09/19 11:49:53;;;;;;;1.60;1.10;;;;;;;-143.37;100.00;65745.06;5090627;28;20255;-74
2021/09/19 11:52:35;;;;;;;3.30;2.35;;;;;;;-143.37;100.00;65745.06;5091617;28;20220;-74
2021/09/19 11:55:18;;;;;;;2.60;1.88;;;;;;;-143.37;100.00;65745.06;5090760;28;20744;-74
2021/09/19 11:57:59;;;;;;;1.30;1.20;;;;;;;-143.37;100.00;65745.06;5091361;28;20678;-75
2021/09/19 12:00:48;;;;;;;1.13;1.00;;;;;;;-143.37;100.00;65745.06;5091102;28;20295;-74
2021/09/19 12:03:33;;;;;;;2.58;1.40;;;;;;;-143.37;100.00;65745.06;5090806;28;20618;-75
2021/09/19 12:06:15;;;;;;;1.63;1.20;;;;;;;-143.37;100.00;65745.06;5080759;28;20805;-77
2021/09/19 12:08:58;;;;;;;4.22;2.15;;;;;;;-143.37;100.00;65745.06;5071443;28;20297;-76
2021/09/19 12:11:56;;;;;;;1.85;1.30;;;;;;;-143.37;100.00;65745.06;5070922;28;20251;-74
2021/09/19 12:14:43;;;;;;;1.20;1.10;;;;;;;-143.37;100.00;65745.06;5070433;28;20292;-74
2021/09/19 12:17:26;;;;;;;3.55;2.38;;;;;;;-143.37;100.00;65745.06;5085904;28;20232;-73